createdAt,value
2019-01-31T00:02:20.408Z,99.90
2019-01-31T00:05:00.816Z,99.90
2019-01-31T00:07:35.503Z,99.90
2019-01-31T00:10:08.779Z,99.90
2019-01-31T00:12:46.293Z,99.90
2019-01-31T00:15:20.499Z,99.90
2019-01-31T00:17:52.061Z,99.90
2019-01-31T00:20:26.549Z,99.90
2019-01-31T00:23:14.667Z,99.90
2019-01-31T00:25:51.928Z,99.90
2019-01-31T00:28:26.599Z,99.90
2019-01-31T00:31:19.363Z,99.90
2019-01-31T00:33:59.678Z,99.90
2019-01-31T00:36:34.253Z,99.90
2019-01-31T00:39:33.989Z,99.90
2019-01-31T00:42:14.584Z,99.90
2019-01-31T00:45:13.372Z,99.90
2019-01-31T00:47:50.628Z,99.90
2019-01-31T00:50:27.875Z,99.90
2019-01-31T00:53:20.268Z,99.90
2019-01-31T00:55:51.859Z,99.90
2019-01-31T00:58:41.623Z,99.90
2019-01-31T01:01:37.151Z,99.90
2019-01-31T01:04:31.377Z,99.90
2019-01-31T01:07:03.017Z,99.90
2019-01-31T01:09:40.301Z,99.90
2019-01-31T01:12:23.814Z,99.90
2019-01-31T01:14:55.440Z,99.90
2019-01-31T01:17:29.732Z,99.90
2019-01-31T01:20:12.681Z,99.90
2019-01-31T01:22:47.018Z,99.90
2019-01-31T01:25:47.301Z,99.90
2019-01-31T01:28:40.191Z,99.90
2019-01-31T01:31:11.795Z,99.90
2019-01-31T01:34:14.856Z,99.90
2019-01-31T01:36:55.264Z,99.90
2019-01-31T01:39:43.803Z,99.90
2019-01-31T01:42:30.409Z,99.90
2019-01-31T01:45:21.369Z,99.90
2019-01-31T01:47:52.973Z,99.90
2019-01-31T01:50:36.414Z,99.90
2019-01-31T01:53:33.808Z,99.90
2019-01-31T01:56:17.543Z,99.90
2019-01-31T01:58:49.084Z,99.90
2019-01-31T02:01:38.990Z,99.90
2019-01-31T02:04:16.387Z,99.90
2019-01-31T02:06:51.133Z,99.90
2019-01-31T02:12:19.828Z,99.90
2019-01-31T02:15:03.384Z,99.90
2019-01-31T02:17:37.500Z,99.90
2019-01-31T02:20:15.025Z,99.90
2019-01-31T02:22:49.628Z,99.90
2019-01-31T02:25:21.186Z,99.90
2019-01-31T02:27:55.772Z,99.90
2019-01-31T02:30:30.556Z,99.90
2019-01-31T02:33:02.185Z,99.90
2019-01-31T02:35:33.722Z,99.90
2019-01-31T02:38:34.264Z,99.90
2019-01-31T02:41:17.390Z,99.90
2019-01-31T02:44:10.517Z,99.90
2019-01-31T02:46:58.626Z,99.90
2019-01-31T02:49:36.255Z,99.90
2019-01-31T02:52:16.722Z,99.90
2019-01-31T02:54:57.084Z,99.90
2019-01-31T02:57:31.299Z,99.90
2019-01-31T03:00:08.887Z,99.90
2019-01-31T03:03:01.775Z,99.90
2019-01-31T03:05:39.336Z,99.90
2019-01-31T03:08:19.742Z,99.90
2019-01-31T03:10:51.439Z,99.90
2019-01-31T03:13:23.075Z,99.90
2019-01-31T03:16:23.371Z,99.90
2019-01-31T03:19:09.969Z,99.90
2019-01-31T03:21:58.195Z,99.90
2019-01-31T03:24:38.799Z,99.90
2019-01-31T03:27:19.774Z,99.90
2019-01-31T03:30:03.586Z,99.90
2019-01-31T03:32:40.862Z,99.90
2019-01-31T03:35:21.426Z,99.90
2019-01-31T03:38:04.946Z,99.90
2019-01-31T03:40:45.396Z,99.90
2019-01-31T03:43:33.422Z,99.90
2019-01-31T03:46:05.072Z,99.90
2019-01-31T03:49:01.024Z,99.90
2019-01-31T03:52:02.861Z,99.90
2019-01-31T03:54:43.415Z,99.90
2019-01-31T03:57:29.931Z,99.90
2019-01-31T04:00:01.680Z,99.90
2019-01-31T04:02:45.204Z,99.90
2019-01-31T04:05:25.947Z,99.90
2019-01-31T04:07:54.706Z,99.90
2019-01-31T04:10:23.402Z,99.90
2019-01-31T04:12:52.498Z,99.90
2019-01-31T04:15:21.203Z,99.90
2019-01-31T04:17:49.766Z,99.90
2019-01-31T04:20:18.448Z,99.90
2019-01-31T04:22:47.154Z,99.90
2019-01-31T04:25:15.853Z,99.90
2019-01-31T04:27:44.598Z,99.90
2019-01-31T04:30:15.406Z,99.90
2019-01-31T04:32:44.114Z,99.90
2019-01-31T04:35:12.994Z,99.90
2019-01-31T04:37:41.700Z,99.90
2019-01-31T04:40:11.455Z,99.90
2019-01-31T04:42:40.094Z,99.90
2019-01-31T04:45:10.295Z,99.90
2019-01-31T04:47:39.034Z,99.90
2019-01-31T04:50:10.676Z,99.90
2019-01-31T04:52:39.418Z,99.90
2019-01-31T04:55:08.418Z,99.90
2019-01-31T04:57:37.130Z,99.90
2019-01-31T05:00:08.802Z,99.90
2019-01-31T05:02:37.517Z,99.90
2019-01-31T05:05:07.357Z,99.90
2019-01-31T05:07:36.057Z,99.90
2019-01-31T05:10:07.734Z,99.90
2019-01-31T05:12:36.395Z,99.90
2019-01-31T05:15:08.206Z,99.90
2019-01-31T05:17:36.966Z,99.90
2019-01-31T05:20:11.435Z,99.90
2019-01-31T05:22:40.197Z,99.90
2019-01-31T05:25:10.812Z,99.90
2019-01-31T05:27:39.506Z,99.90
2019-01-31T05:30:11.358Z,99.90
2019-01-31T05:32:40.081Z,99.90
2019-01-31T05:35:10.331Z,99.90
2019-01-31T05:37:38.957Z,99.90
2019-01-31T05:40:10.255Z,99.90
2019-01-31T05:42:38.934Z,99.90
2019-01-31T05:45:10.613Z,99.90
2019-01-31T05:47:39.350Z,99.90
2019-01-31T05:50:15.895Z,99.90
2019-01-31T05:52:44.578Z,99.90
2019-01-31T05:55:14.386Z,99.90
2019-01-31T05:57:43.149Z,99.90
2019-01-31T06:00:14.916Z,99.90
2019-01-31T06:02:43.642Z,99.90
2019-01-31T06:05:12.402Z,99.90
2019-01-31T06:07:41.143Z,99.90
2019-01-31T06:10:11.977Z,99.90
2019-01-31T06:12:40.728Z,99.90
2019-01-31T06:15:17.394Z,99.90
2019-01-31T06:17:46.367Z,99.90
2019-01-31T06:20:23.296Z,99.90
2019-01-31T06:22:52.604Z,99.90
2019-01-31T06:25:21.296Z,99.90
2019-01-31T06:27:49.995Z,99.90
2019-01-31T06:30:19.144Z,99.90
2019-01-31T06:32:47.868Z,99.90
2019-01-31T06:35:17.345Z,99.90
2019-01-31T06:37:46.535Z,99.90
2019-01-31T06:40:20.131Z,99.90
2019-01-31T06:42:49.046Z,99.90
2019-01-31T06:45:19.698Z,99.90
2019-01-31T06:47:48.412Z,99.90
2019-01-31T06:50:17.367Z,99.90
2019-01-31T06:52:46.068Z,99.90
2019-01-31T06:55:15.566Z,99.90
2019-01-31T06:57:44.311Z,99.90
2019-01-31T07:00:21.526Z,99.90
2019-01-31T07:02:50.262Z,99.90
2019-01-31T07:05:18.983Z,99.90
2019-01-31T07:07:47.686Z,99.90
2019-01-31T07:10:21.574Z,99.90
2019-01-31T07:12:50.283Z,99.90
2019-01-31T07:15:18.990Z,99.90
2019-01-31T07:17:47.818Z,99.90
2019-01-31T07:20:17.514Z,99.90
2019-01-31T07:22:46.356Z,99.90
2019-01-31T07:25:20.506Z,99.90
2019-01-31T07:27:49.142Z,99.90
2019-01-31T07:30:20.175Z,99.90
2019-01-31T07:32:49.001Z,99.90
2019-01-31T07:35:18.118Z,99.90
2019-01-31T07:37:46.929Z,99.90
2019-01-31T07:40:18.307Z,99.90
2019-01-31T07:42:47.005Z,99.90
2019-01-31T07:45:19.105Z,99.90
2019-01-31T07:47:47.858Z,99.90
2019-01-31T07:50:18.662Z,99.90
2019-01-31T07:52:47.379Z,99.90
2019-01-31T07:55:16.053Z,99.90
2019-01-31T07:57:44.683Z,99.90
2019-01-31T08:00:18.622Z,99.90
2019-01-31T08:02:47.379Z,99.90
2019-01-31T08:05:17.841Z,99.90
2019-01-31T08:07:46.896Z,99.90
2019-01-31T08:10:30.381Z,99.90
2019-01-31T08:12:59.398Z,99.90
2019-01-31T08:15:28.111Z,99.90
2019-01-31T08:17:56.738Z,99.90
2019-01-31T08:20:25.410Z,99.90
2019-01-31T08:22:54.120Z,99.90
2019-01-31T08:25:24.542Z,99.90
2019-01-31T08:27:54.765Z,99.90
2019-01-31T08:30:32.065Z,99.90
2019-01-31T08:33:00.901Z,99.90
2019-01-31T08:35:29.607Z,99.90
2019-01-31T08:37:58.306Z,99.90
2019-01-31T08:40:27.053Z,99.90
2019-01-31T08:42:55.762Z,99.90
2019-01-31T08:45:24.466Z,99.90
2019-01-31T08:47:53.202Z,99.90
2019-01-31T08:50:27.553Z,99.90
2019-01-31T08:52:55.130Z,99.90
2019-01-31T08:55:23.876Z,99.90
2019-01-31T08:57:52.586Z,99.90
2019-01-31T09:00:23.594Z,99.90
2019-01-31T09:02:52.776Z,99.90
2019-01-31T09:05:21.482Z,99.90
2019-01-31T09:07:50.186Z,99.90
2019-01-31T09:10:21.517Z,99.90
2019-01-31T09:12:50.240Z,99.90
2019-01-31T09:15:21.341Z,99.90
2019-01-31T09:17:50.186Z,99.90
2019-01-31T09:20:24.851Z,99.90
2019-01-31T09:22:59.327Z,99.90
2019-01-31T09:25:56.573Z,99.90
2019-01-31T09:28:30.965Z,99.90
2019-01-31T09:31:19.133Z,99.90
2019-01-31T09:33:59.829Z,99.90
2019-01-31T09:36:43.538Z,99.90
2019-01-31T09:39:31.766Z,99.90
2019-01-31T09:42:03.417Z,99.90
2019-01-31T09:44:50.366Z,99.90
2019-01-31T09:47:28.142Z,99.90
2019-01-31T09:49:59.815Z,99.90
2019-01-31T09:52:34.383Z,99.90
2019-01-31T09:55:14.896Z,99.90
2019-01-31T09:57:49.444Z,99.90
2019-01-31T10:00:27.615Z,99.90
2019-01-31T10:03:03.038Z,99.90
2019-01-31T10:05:54.520Z,99.90
2019-01-31T10:08:37.713Z,99.90
2019-01-31T10:11:21.361Z,99.90
2019-01-31T10:14:01.384Z,99.90
2019-01-31T10:16:41.798Z,99.90
2019-01-31T10:19:42.139Z,99.90
2019-01-31T10:22:18.895Z,99.90
2019-01-31T10:24:54.593Z,99.90
2019-01-31T10:27:32.440Z,99.90
2019-01-31T10:30:30.016Z,99.90
2019-01-31T10:36:12.491Z,99.90
2019-01-31T10:39:04.727Z,99.90
2019-01-31T10:41:45.422Z,99.90
2019-01-31T10:44:22.724Z,99.90
2019-01-31T10:47:00.267Z,99.90
2019-01-31T10:49:34.631Z,99.90
2019-01-31T10:52:08.766Z,99.90
2019-01-31T10:54:40.855Z,99.90
2019-01-31T10:57:24.178Z,99.90
2019-01-31T11:00:06.497Z,99.90
2019-01-31T11:02:47.963Z,99.00
2019-01-31T11:05:22.791Z,98.20
2019-01-31T11:08:18.197Z,95.30
2019-01-31T11:10:52.541Z,90.60
2019-01-31T11:13:49.591Z,83.00
2019-01-31T11:16:45.638Z,77.90
2019-01-31T11:19:23.114Z,75.10
2019-01-31T11:22:19.179Z,74.20
2019-01-31T11:25:05.932Z,76.50
2019-01-31T11:27:46.084Z,77.50
2019-01-31T11:30:29.898Z,74.90
2019-01-31T11:33:22.630Z,74.40
2019-01-31T11:36:12.669Z,74.70
2019-01-31T11:38:47.005Z,80.20
2019-01-31T11:41:34.977Z,83.30
2019-01-31T11:44:09.642Z,84.30
2019-01-31T11:46:41.301Z,82.20
2019-01-31T11:49:12.958Z,77.70
2019-01-31T11:52:09.087Z,74.80
2019-01-31T11:54:57.430Z,67.10
2019-01-31T11:57:51.815Z,65.10
2019-01-31T12:00:22.621Z,66.00
2019-01-31T12:02:55.051Z,67.20
2019-01-31T12:05:21.599Z,66.30
2019-01-31T12:07:50.425Z,63.10
2019-01-31T12:10:19.195Z,61.60
2019-01-31T12:12:47.900Z,61.30
2019-01-31T12:15:16.737Z,59.40
2019-01-31T12:17:45.297Z,60.00
2019-01-31T12:20:16.405Z,59.00
2019-01-31T12:22:46.323Z,58.50
2019-01-31T12:25:14.998Z,58.30
2019-01-31T12:27:43.662Z,58.10
2019-01-31T12:30:21.091Z,59.30
2019-01-31T12:32:49.797Z,61.10
2019-01-31T12:35:18.520Z,60.60
2019-01-31T12:37:47.319Z,58.90
2019-01-31T12:40:17.924Z,55.60
2019-01-31T12:42:47.268Z,56.30
2019-01-31T12:45:18.405Z,54.00
2019-01-31T12:47:47.220Z,56.60
2019-01-31T12:50:18.525Z,57.20
2019-01-31T12:52:47.381Z,58.70
2019-01-31T12:55:16.017Z,60.00
2019-01-31T12:57:44.730Z,57.90
2019-01-31T13:00:24.976Z,59.20
2019-01-31T13:02:53.886Z,60.50
2019-01-31T13:05:22.594Z,58.70
2019-01-31T13:07:51.622Z,61.10
2019-01-31T13:10:20.401Z,66.70
2019-01-31T13:12:49.610Z,69.70
2019-01-31T13:15:18.538Z,73.30
2019-01-31T13:17:47.550Z,77.80
2019-01-31T13:20:22.590Z,81.20
2019-01-31T13:22:53.389Z,80.90
2019-01-31T13:25:23.284Z,81.90
2019-01-31T13:27:52.119Z,84.20
2019-01-31T13:30:22.609Z,86.00
2019-01-31T13:32:53.219Z,87.50
2019-01-31T13:35:22.078Z,88.90
2019-01-31T13:37:50.788Z,89.90
2019-01-31T13:40:21.499Z,89.90
2019-01-31T13:42:51.042Z,87.40
2019-01-31T13:45:38.998Z,86.40
2019-01-31T13:48:09.323Z,83.30
2019-01-31T13:50:38.014Z,78.90
2019-01-31T13:53:07.704Z,78.30
2019-01-31T13:55:36.849Z,75.40
2019-01-31T13:58:05.539Z,79.20
2019-01-31T14:00:34.224Z,76.40
2019-01-31T14:03:02.973Z,78.00
2019-01-31T14:05:31.595Z,82.10
2019-01-31T14:08:00.281Z,80.50
2019-01-31T14:10:29.001Z,84.80
2019-01-31T14:12:57.558Z,85.40
2019-01-31T14:15:34.008Z,84.90
2019-01-31T14:18:02.208Z,87.10
2019-01-31T14:20:30.831Z,85.20
2019-01-31T14:22:59.521Z,85.90
2019-01-31T14:25:28.456Z,86.20
2019-01-31T14:27:57.144Z,86.80
2019-01-31T14:30:31.200Z,89.00
2019-01-31T14:33:00.540Z,87.20
2019-01-31T14:35:29.925Z,86.20
2019-01-31T14:37:58.563Z,86.80
2019-01-31T14:40:27.472Z,86.40
2019-01-31T14:42:56.154Z,87.20
2019-01-31T14:45:24.845Z,82.30
2019-01-31T14:47:55.717Z,82.20
2019-01-31T14:50:26.877Z,79.00
2019-01-31T14:52:56.999Z,80.80
2019-01-31T14:55:25.841Z,80.70
2019-01-31T14:57:54.935Z,81.60
2019-01-31T15:00:29.647Z,81.60
2019-01-31T15:02:58.199Z,79.70
2019-01-31T15:05:46.194Z,79.20
2019-01-31T15:08:14.812Z,80.80
2019-01-31T15:10:45.820Z,76.20
2019-01-31T15:13:13.729Z,73.20
2019-01-31T15:15:42.417Z,73.40
2019-01-31T15:18:11.202Z,74.00
2019-01-31T15:20:42.383Z,74.40
2019-01-31T15:23:11.074Z,74.40
2019-01-31T15:25:39.768Z,77.20
2019-01-31T15:28:08.585Z,73.10
2019-01-31T15:30:37.774Z,75.70
2019-01-31T15:33:09.128Z,73.00
2019-01-31T15:35:37.948Z,75.10
2019-01-31T15:38:07.153Z,76.20
2019-01-31T15:40:42.297Z,83.00
2019-01-31T15:43:11.092Z,88.70
2019-01-31T15:45:39.773Z,90.80
2019-01-31T15:48:10.826Z,92.70
2019-01-31T15:50:39.669Z,93.60
2019-01-31T15:53:08.365Z,94.10
2019-01-31T15:55:37.397Z,95.80
2019-01-31T15:58:06.885Z,96.70
2019-01-31T16:00:44.965Z,97.60
2019-01-31T16:03:15.857Z,98.50
2019-01-31T16:05:44.570Z,98.90
2019-01-31T16:08:13.480Z,99.10
2019-01-31T16:10:42.197Z,99.40
2019-01-31T16:13:11.214Z,99.80
2019-01-31T16:15:40.331Z,99.90
2019-01-31T16:18:10.682Z,99.90
2019-01-31T16:20:39.401Z,99.90
2019-01-31T16:23:08.937Z,99.90
2019-01-31T16:25:37.632Z,99.90
2019-01-31T16:28:06.322Z,99.90
2019-01-31T16:30:35.393Z,99.90
2019-01-31T16:33:04.590Z,99.90
2019-01-31T16:35:33.325Z,99.90
2019-01-31T16:38:02.077Z,99.90
2019-01-31T16:40:30.816Z,99.90
2019-01-31T16:42:59.713Z,99.90
2019-01-31T16:45:28.833Z,99.90
2019-01-31T16:47:57.524Z,99.90
2019-01-31T16:50:26.604Z,99.90
2019-01-31T16:52:55.329Z,99.90
2019-01-31T16:55:30.805Z,99.90
2019-01-31T16:57:59.852Z,99.90
2019-01-31T17:00:31.224Z,99.90
2019-01-31T17:03:00.152Z,99.90
2019-01-31T17:05:30.876Z,99.90
2019-01-31T17:07:59.854Z,99.90
2019-01-31T17:10:28.669Z,99.90
2019-01-31T17:12:57.631Z,99.90
2019-01-31T17:15:26.829Z,99.90
2019-01-31T17:17:55.531Z,99.90
2019-01-31T17:20:38.998Z,99.90
2019-01-31T17:23:07.713Z,99.90
2019-01-31T17:25:36.410Z,99.90
2019-01-31T17:28:05.314Z,99.90
2019-01-31T17:30:33.942Z,99.90
2019-01-31T17:33:02.578Z,99.90
2019-01-31T17:35:31.647Z,99.90
2019-01-31T17:38:00.270Z,99.90
2019-01-31T17:40:31.745Z,99.90
2019-01-31T17:43:00.410Z,99.90
2019-01-31T17:45:30.826Z,99.90
2019-01-31T17:47:59.824Z,99.90
2019-01-31T17:50:28.998Z,99.90
2019-01-31T17:52:57.557Z,99.90
2019-01-31T17:55:27.552Z,99.90
2019-01-31T17:57:56.797Z,99.90
2019-01-31T18:00:35.137Z,99.90
2019-01-31T18:03:04.173Z,99.90
2019-01-31T18:05:32.865Z,99.90
2019-01-31T18:08:01.421Z,99.90
2019-01-31T18:10:30.243Z,99.90
2019-01-31T18:12:58.867Z,99.90
2019-01-31T18:15:27.929Z,99.90
2019-01-31T18:17:56.517Z,99.90
2019-01-31T18:20:25.313Z,99.90
2019-01-31T18:22:54.014Z,99.90
2019-01-31T18:25:22.673Z,99.90
2019-01-31T18:27:53.227Z,99.90
2019-01-31T18:30:27.016Z,99.90
2019-01-31T18:32:55.779Z,99.90
2019-01-31T18:35:24.573Z,99.90
2019-01-31T18:37:53.269Z,99.90
2019-01-31T18:40:27.542Z,99.90
2019-01-31T18:42:56.242Z,99.90
2019-01-31T18:45:26.733Z,99.90
2019-01-31T18:47:55.558Z,99.90
2019-01-31T18:50:30.143Z,99.90
2019-01-31T18:52:58.829Z,99.90
2019-01-31T18:55:28.466Z,99.90
2019-01-31T18:57:57.366Z,99.90
2019-01-31T19:00:31.699Z,99.90
2019-01-31T19:03:00.877Z,99.90
2019-01-31T19:05:30.074Z,99.90
2019-01-31T19:07:58.764Z,99.90
2019-01-31T19:10:27.494Z,99.90
2019-01-31T19:12:56.184Z,99.90
2019-01-31T19:15:26.178Z,99.90
2019-01-31T19:18:05.514Z,99.90
2019-01-31T19:20:27.176Z,99.90
2019-01-31T19:22:56.781Z,99.90
2019-01-31T19:25:25.610Z,99.90
2019-01-31T19:27:54.161Z,99.90
2019-01-31T19:30:28.449Z,99.90
2019-01-31T19:32:57.109Z,99.90
2019-01-31T19:35:25.796Z,99.90
2019-01-31T19:38:01.569Z,99.90
2019-01-31T19:40:27.440Z,99.90
2019-01-31T19:42:56.125Z,99.90
2019-01-31T19:45:33.301Z,99.90
2019-01-31T19:48:02.005Z,99.90
2019-01-31T19:50:30.697Z,99.90
2019-01-31T19:52:59.424Z,99.90
2019-01-31T19:55:28.121Z,99.90
2019-01-31T19:57:56.668Z,99.90
2019-01-31T20:00:27.019Z,99.90
2019-01-31T20:02:55.952Z,99.90
2019-01-31T20:05:24.806Z,99.90
2019-01-31T20:07:53.839Z,99.90
2019-01-31T20:10:24.631Z,99.90
2019-01-31T20:12:53.615Z,99.90
2019-01-31T20:15:22.886Z,99.90
2019-01-31T20:17:51.590Z,99.90
2019-01-31T20:20:25.426Z,99.90
2019-01-31T20:22:55.200Z,99.90
2019-01-31T20:25:25.549Z,99.90
2019-01-31T20:27:54.243Z,99.90
2019-01-31T20:30:25.446Z,99.90
2019-01-31T20:32:54.637Z,99.90
2019-01-31T20:35:24.130Z,99.90
2019-01-31T20:37:53.070Z,99.90
2019-01-31T20:40:24.513Z,99.90
2019-01-31T20:42:53.204Z,99.90
2019-01-31T20:45:21.945Z,99.90
2019-01-31T20:47:50.636Z,99.90
2019-01-31T20:50:21.830Z,99.90
2019-01-31T20:52:50.654Z,99.90
2019-01-31T20:55:19.412Z,99.90
2019-01-31T20:57:48.102Z,99.90
2019-01-31T21:00:24.578Z,99.90
2019-01-31T21:02:53.265Z,99.90
2019-01-31T21:05:22.017Z,99.90
2019-01-31T21:07:50.745Z,99.90
2019-01-31T21:10:19.537Z,99.90
2019-01-31T21:12:48.171Z,99.90
2019-01-31T21:15:19.437Z,99.90
2019-01-31T21:17:48.129Z,99.90
2019-01-31T21:20:19.308Z,99.90
2019-01-31T21:22:48.531Z,99.90
2019-01-31T21:25:18.521Z,99.90
2019-01-31T21:27:47.911Z,99.90
2019-01-31T21:30:19.508Z,99.70
2019-01-31T21:32:48.126Z,99.90
2019-01-31T21:35:17.369Z,99.90
2019-01-31T21:37:46.689Z,99.90
2019-01-31T21:40:39.663Z,99.90
2019-01-31T21:43:08.376Z,99.90
2019-01-31T21:45:37.269Z,99.90
2019-01-31T21:48:06.568Z,99.90
2019-01-31T21:50:35.623Z,99.90
2019-01-31T21:53:04.495Z,99.90
2019-01-31T21:55:33.113Z,99.90
2019-01-31T21:58:01.849Z,99.90
2019-01-31T22:00:34.953Z,99.90
2019-01-31T22:03:05.685Z,99.90
2019-01-31T22:05:34.378Z,99.90
2019-01-31T22:08:03.073Z,99.90
2019-01-31T22:10:31.816Z,99.90
2019-01-31T22:13:02.801Z,99.90
2019-01-31T22:15:33.513Z,99.90
2019-01-31T22:18:02.648Z,99.90
2019-01-31T22:20:31.332Z,99.90
2019-01-31T22:23:00.028Z,99.90
2019-01-31T22:25:29.107Z,99.90
2019-01-31T22:27:57.729Z,99.90
2019-01-31T22:30:29.365Z,99.90
2019-01-31T22:32:58.027Z,99.90
2019-01-31T22:35:26.721Z,99.90
2019-01-31T22:37:55.420Z,99.90
2019-01-31T22:40:24.076Z,99.90
2019-01-31T22:42:52.767Z,99.90
2019-01-31T22:45:25.186Z,99.90
2019-01-31T22:47:54.304Z,99.90
2019-01-31T22:50:23.907Z,99.90
2019-01-31T22:52:52.599Z,99.90
2019-01-31T22:55:26.452Z,99.90
2019-01-31T22:57:55.179Z,99.90
2019-01-31T23:00:31.240Z,99.90
2019-01-31T23:02:59.929Z,99.90
2019-01-31T23:05:28.627Z,99.90
2019-01-31T23:07:57.464Z,99.90
2019-01-31T23:10:26.189Z,99.90
2019-01-31T23:12:54.707Z,99.90
2019-01-31T23:15:23.520Z,99.90
2019-01-31T23:17:52.141Z,99.90
2019-01-31T23:20:20.834Z,99.90
2019-01-31T23:22:49.438Z,99.90
2019-01-31T23:25:18.130Z,99.90
2019-01-31T23:27:46.759Z,99.90
2019-01-31T23:30:18.281Z,99.90
2019-01-31T23:32:46.829Z,99.90
2019-01-31T23:35:15.525Z,99.90
2019-01-31T23:37:44.265Z,99.90
2019-01-31T23:40:14.260Z,99.80
2019-01-31T23:42:43.053Z,99.90
2019-01-31T23:45:16.672Z,99.90
2019-01-31T23:47:48.979Z,99.30
2019-01-31T23:50:15.701Z,99.30
2019-01-31T23:52:44.353Z,99.80
2019-01-31T23:55:15.422Z,99.90
2019-01-31T23:57:44.165Z,99.90
